»·PEaware :: N790DL L88-KSBP

N790DL :: L88-KSBP

FLIGHT INFORMATION

Flight Status: Arrived
Operator: Privately registered:
United States
More flights under this callsign
Pilot: Eric W. (14379)
Aircraft: BEECH AIRCRAFT DEBONAIR BONANZA
(BE33)
More flights by this aircraft type
Origin: L88 New Cuyama
United States
Destination: KSBP San Luis Co Regl
United States
More flights between these airports :: More routes between these airports
Route: DIRECT
File this flight plan on PilotEdge
Remarks:
Altitude:
(Current/Filed)
4,500ft
Speed:
(Current/Filed)
158kts
Departed: 02-Dec-19 04:21 PM
Arrived: 02-Dec-19 04:51 PM
Distance/Time
Traveled:
50nm/0:30
Distance/Time
To Go:
Arrived

Flight Plot

Page will automatically refresh every two minutes.


Map Options




Map Legend


Flown Route
Filed Route
Departure Airport
Arrival Airport
Navaid (VOR, NDB)
Fix

Horizontal Profiles

Position Reports

Time Latitude Longitude Heading Altitude Ground
Speed
02-Dec-19 15:54 34.942799 -119.690439 286 2156ft 0kts
02-Dec-19 15:55 34.942799 -119.690439 286 2156ft 0kts
02-Dec-19 15:56 34.942799 -119.690439 286 2156ft 0kts
02-Dec-19 15:57 34.942799 -119.690439 286 2156ft 0kts
02-Dec-19 15:58 34.942799 -119.690439 286 2156ft 0kts
02-Dec-19 15:59 34.942799 -119.690439 286 2156ft 0kts
02-Dec-19 16:00 34.942799 -119.690439 286 2156ft 0kts
02-Dec-19 16:01 34.942799 -119.690439 286 2156ft 0kts
02-Dec-19 16:03 34.942799 -119.690439 286 2156ft 0kts
02-Dec-19 16:04 34.942799 -119.690439 286 2156ft 0kts
02-Dec-19 16:05 34.942799 -119.690439 286 2156ft 0kts
02-Dec-19 16:06 34.942799 -119.690439 286 2156ft 0kts
02-Dec-19 16:07 34.942799 -119.690439 286 2156ft 0kts
02-Dec-19 16:08 34.942799 -119.690439 286 2156ft 0kts
02-Dec-19 16:09 34.942799 -119.690439 286 2156ft 0kts
02-Dec-19 16:10 34.942799 -119.690439 286 2156ft 0kts
02-Dec-19 16:11 34.942843 -119.690713 275 2155ft 0kts
02-Dec-19 16:12 34.943015 -119.691002 204 2154ft 0kts
02-Dec-19 16:13 34.942984 -119.691018 198 2154ft 0kts
02-Dec-19 16:14 34.942984 -119.691018 198 2154ft 0kts
02-Dec-19 16:15 34.942984 -119.691018 198 2154ft 0kts
02-Dec-19 16:16 34.942984 -119.691018 198 2154ft 0kts
02-Dec-19 16:17 34.942984 -119.691018 198 2154ft 0kts
02-Dec-19 16:18 34.942984 -119.691018 198 2154ft 0kts
02-Dec-19 16:19 34.942984 -119.691018 198 2154ft 0kts
02-Dec-19 16:20 34.942940 -119.691044 210 2154ft 1kts
02-Dec-19 16:20 34.941099 -119.688436 115 2163ft 75kts
02-Dec-19 16:22 34.929128 -119.685712 288 3148ft 103kts
02-Dec-19 16:23 34.943368 -119.718200 303 3995ft 117kts
02-Dec-19 16:23 34.959320 -119.746543 304 4497ft 125kts
02-Dec-19 16:25 34.983108 -119.792901 291 4503ft 146kts
02-Dec-19 16:25 34.991646 -119.834085 281 4507ft 156kts
02-Dec-19 16:26 35.003269 -119.886633 289 4510ft 161kts
02-Dec-19 16:27 35.017467 -119.931851 287 5297ft 128kts
02-Dec-19 16:28 35.029366 -119.970211 286 6139ft 112kts
02-Dec-19 16:29 35.041185 -120.008357 287 6517ft 141kts
02-Dec-19 16:30 35.056652 -120.057693 287 6469ft 165kts
02-Dec-19 16:31 35.073444 -120.111479 287 6466ft 169kts
02-Dec-19 16:32 35.090242 -120.165153 291 6463ft 170kts
02-Dec-19 16:33 35.106875 -120.218395 286 6487ft 167kts
02-Dec-19 16:34 35.121735 -120.272106 286 6490ft 164kts
02-Dec-19 16:35 35.136190 -120.324803 286 6190ft 162kts
02-Dec-19 16:36 35.149856 -120.375622 286 5309ft 155kts
02-Dec-19 16:37 35.163044 -120.424756 287 4502ft 144kts
02-Dec-19 16:38 35.176278 -120.469947 291 4491ft 140kts
02-Dec-19 16:39 35.192789 -120.517462 292 4494ft 159kts
02-Dec-19 16:40 35.218778 -120.556018 10 4614ft 153kts
02-Dec-19 16:41 35.228661 -120.512458 130 4416ft 165kts
02-Dec-19 16:42 35.199914 -120.487871 260 4219ft 149kts
02-Dec-19 16:43 35.207813 -120.533021 251 4524ft 138kts
02-Dec-19 16:44 35.181874 -120.514202 87 4517ft 169kts
02-Dec-19 16:45 35.201924 -120.520062 281 4480ft 159kts
02-Dec-19 16:46 35.215316 -120.574630 276 3548ft 187kts
02-Dec-19 16:47 35.233173 -120.604142 54 1971ft 141kts
02-Dec-19 16:48 35.223900 -120.612666 276 1057ft 93kts
02-Dec-19 16:49 35.234572 -120.635993 307 215ft 63kts
02-Dec-19 16:50 35.237833 -120.640820 85 187ft 1kts
02-Dec-19 16:51 35.237933 -120.640262 42 189ft 3kts
02-Dec-19 16:52 35.238634 -120.639596 301 191ft 0kts
02-Dec-19 16:53 35.238634 -120.639595 301 191ft 0kts
02-Dec-19 16:54 35.238634 -120.639595 301 191ft 0kts

Navigation Log

Ident Type
Flight plan parsing failed, navigation log unavailable